createdAt,value
2023-03-22T00:01:06.413Z,63.03
2023-03-22T00:03:53.974Z,66.50
2023-03-22T00:06:41.772Z,64.90
2023-03-22T00:09:31.657Z,63.22
2023-03-22T00:12:25.634Z,62.40
2023-03-22T00:15:22.573Z,58.33
2023-03-22T00:18:20.551Z,55.58
2023-03-22T00:21:18.317Z,56.60
2023-03-22T00:23:56.022Z,58.95
2023-03-22T00:27:00.327Z,63.80
2023-03-22T00:29:54.099Z,66.95
2023-03-22T00:32:42.545Z,66.18
2023-03-22T00:35:29.405Z,64.91
2023-03-22T00:38:39.558Z,62.49
2023-03-22T00:41:38.200Z,61.49
2023-03-22T00:44:19.890Z,57.45
2023-03-22T00:47:05.273Z,56.14
2023-03-22T00:50:06.818Z,57.25
2023-03-22T00:53:09.807Z,61.89
2023-03-22T00:56:00.825Z,65.31
2023-03-22T00:58:53.359Z,64.76
2023-03-22T01:01:55.644Z,62.14
2023-03-22T01:04:56.157Z,58.23
2023-03-22T01:07:56.654Z,56.80
2023-03-22T01:10:42.676Z,57.70
2023-03-22T01:13:22.522Z,64.02
2023-03-22T01:16:17.141Z,66.20
2023-03-22T01:19:25.973Z,64.82
2023-03-22T01:22:17.975Z,64.06
2023-03-22T01:25:12.767Z,62.62
2023-03-22T01:28:04.488Z,58.15
2023-03-22T01:30:58.568Z,56.92
2023-03-22T01:33:53.263Z,57.53
2023-03-22T01:36:50.618Z,63.34
2023-03-22T01:39:47.464Z,66.56
2023-03-22T01:42:49.329Z,65.13
2023-03-22T01:45:50.511Z,64.29
2023-03-22T01:48:53.490Z,63.09
2023-03-22T01:51:50.306Z,62.39
2023-03-22T01:54:58.090Z,61.68
2023-03-22T01:58:18.287Z,57.35
2023-03-22T02:01:31.705Z,55.90
2023-03-22T02:04:23.532Z,57.41
2023-03-22T02:07:27.497Z,63.16
2023-03-22T02:10:27.486Z,66.79
2023-03-22T02:13:39.693Z,65.98
2023-03-22T02:17:04.387Z,64.76
2023-03-22T02:20:14.439Z,63.39
2023-03-22T02:23:32.180Z,62.06
2023-03-22T02:48:36.147Z,64.15
2023-03-22T02:52:20.477Z,64.63
2023-03-22T02:56:14.044Z,63.89
2023-03-22T03:00:22.977Z,62.89
2023-03-22T03:26:40.078Z,62.61
2023-03-22T03:30:40.203Z,62.77
2023-03-22T03:34:23.212Z,61.90
2023-03-22T03:38:16.453Z,61.40
2023-03-22T03:42:03.433Z,55.93
2023-03-22T03:45:46.858Z,54.64
2023-03-22T03:49:30.345Z,56.16
2023-03-22T03:53:20.642Z,64.71
2023-03-22T03:57:04.038Z,66.62
2023-03-22T04:00:54.787Z,65.44
2023-03-22T04:08:47.361Z,63.19
2023-03-22T04:12:21.933Z,62.45
2023-03-22T04:16:30.729Z,61.60
2023-03-22T04:20:18.374Z,55.56
2023-03-22T04:24:08.652Z,54.47
2023-03-22T04:27:55.985Z,55.73
2023-03-22T04:31:44.840Z,64.49
2023-03-22T04:35:39.784Z,66.36
2023-03-22T04:39:23.692Z,65.27
2023-03-22T04:43:16.959Z,64.29
2023-03-22T04:47:06.233Z,63.18
2023-03-22T04:50:55.471Z,62.24
2023-03-22T04:54:44.673Z,56.35
2023-03-22T04:58:29.210Z,55.00
2023-03-22T05:02:03.120Z,56.61
2023-03-22T05:05:52.420Z,64.70
2023-03-22T05:09:33.091Z,66.78
2023-03-22T05:13:16.116Z,65.45
2023-03-22T05:16:58.633Z,64.24
2023-03-22T05:20:48.005Z,63.13
2023-03-22T05:24:37.091Z,61.95
2023-03-22T05:28:18.974Z,56.05
2023-03-22T05:31:45.232Z,55.55
2023-03-22T05:35:07.041Z,56.76
2023-03-22T05:38:24.465Z,64.70
2023-03-22T05:41:24.311Z,66.73
2023-03-22T05:44:47.648Z,66.06
2023-03-22T05:48:12.208Z,65.31
2023-03-22T05:51:33.619Z,64.58
2023-03-22T05:54:53.006Z,63.67
2023-03-22T05:58:08.867Z,62.85
2023-03-22T06:01:33.626Z,61.89
2023-03-22T06:04:50.585Z,61.51
2023-03-22T06:07:48.200Z,61.26
2023-03-22T06:10:50.677Z,60.70
2023-03-22T06:14:02.591Z,60.22
2023-03-22T06:17:12.322Z,56.24
2023-03-22T06:20:18.561Z,56.36
2023-03-22T06:23:29.874Z,58.73
2023-03-22T06:26:24.149Z,64.90
2023-03-22T06:29:51.186Z,66.97
2023-03-22T06:33:14.258Z,65.97
2023-03-22T06:36:26.721Z,64.72
2023-03-22T06:40:00.375Z,63.96
2023-03-22T06:43:12.884Z,63.19
2023-03-22T06:46:34.303Z,62.27
2023-03-22T06:49:36.674Z,61.55
2023-03-22T06:52:56.095Z,61.16
2023-03-22T06:56:02.322Z,61.18
2023-03-22T06:59:14.001Z,57.25
2023-03-22T07:02:10.336Z,56.94
2023-03-22T07:05:31.461Z,62.51
2023-03-22T07:08:38.647Z,64.40
2023-03-22T07:11:48.178Z,63.58
2023-03-22T07:14:58.241Z,61.86
2023-03-22T07:18:32.552Z,61.25
2023-03-22T07:21:33.597Z,57.15
2023-03-22T07:25:07.310Z,56.34
2023-03-22T07:28:03.122Z,57.01
2023-03-22T07:31:06.022Z,63.92
2023-03-22T07:34:30.108Z,65.71
2023-03-22T07:37:40.863Z,65.01
2023-03-22T07:40:55.048Z,63.21
2023-03-22T07:44:11.425Z,62.06
2023-03-22T07:47:13.591Z,60.60
2023-03-22T07:50:18.422Z,56.35
2023-03-22T07:53:23.049Z,55.18
2023-03-22T07:56:12.316Z,57.48
2023-03-22T07:59:05.836Z,58.34
2023-03-22T08:01:58.887Z,63.24
2023-03-22T08:04:55.738Z,66.13
2023-03-22T08:07:57.850Z,64.37
2023-03-22T08:10:50.824Z,62.87
2023-03-22T08:13:42.954Z,61.47
2023-03-22T08:16:26.605Z,57.23
2023-03-22T08:19:05.101Z,55.77
2023-03-22T08:22:11.759Z,57.95
2023-03-22T08:25:15.777Z,58.43
2023-03-22T08:27:57.767Z,63.23
2023-03-22T08:30:36.280Z,65.62
2023-03-22T08:33:24.217Z,63.70
2023-03-22T08:36:22.881Z,61.51
2023-03-22T08:39:19.551Z,57.08
2023-03-22T08:42:08.607Z,55.96
2023-03-22T08:44:48.245Z,56.95
2023-03-22T08:47:23.789Z,57.47
2023-03-22T08:50:22.169Z,58.73
2023-03-22T08:53:17.560Z,63.49
2023-03-22T08:56:05.111Z,65.22
2023-03-22T08:59:07.717Z,56.21
2023-03-22T09:01:56.725Z,54.41
2023-03-22T09:04:49.845Z,54.25
2023-03-22T09:07:32.104Z,55.09
2023-03-22T09:10:24.416Z,56.38
2023-03-22T09:13:08.485Z,56.89
2023-03-22T09:15:47.082Z,57.58
2023-03-22T09:18:23.056Z,58.71
2023-03-22T09:21:06.281Z,58.64
2023-03-22T09:23:47.956Z,59.25
2023-03-22T09:26:24.420Z,59.66
2023-03-22T09:28:59.473Z,59.32
2023-03-22T09:31:34.653Z,59.97
2023-03-22T09:34:17.947Z,59.60
2023-03-22T09:36:58.789Z,60.29
2023-03-22T09:39:33.845Z,59.71
2023-03-22T09:42:19.141Z,59.74
2023-03-22T09:44:54.736Z,59.00
2023-03-22T09:47:43.874Z,58.76
2023-03-22T09:50:20.981Z,59.17
2023-03-22T09:52:53.777Z,57.74
2023-03-22T09:55:30.554Z,57.74
2023-03-22T09:58:08.600Z,57.72
2023-03-22T10:00:44.446Z,57.82
2023-03-22T10:03:19.134Z,57.52
2023-03-22T10:06:10.551Z,55.49
2023-03-22T10:09:15.587Z,56.13
2023-03-22T10:11:54.647Z,55.31
2023-03-22T10:14:42.572Z,54.04
2023-03-22T10:17:13.621Z,53.65
2023-03-22T10:19:53.538Z,55.53
2023-03-22T10:22:30.009Z,54.70
2023-03-22T10:25:08.709Z,54.99
2023-03-22T10:27:47.689Z,54.64
2023-03-22T10:30:25.009Z,54.79
2023-03-22T10:33:17.064Z,54.38
2023-03-22T10:35:51.418Z,53.93
2023-03-22T10:38:35.126Z,53.95
2023-03-22T10:41:12.656Z,54.12
2023-03-22T10:43:44.574Z,53.70
2023-03-22T10:46:18.513Z,52.17
2023-03-22T10:48:51.160Z,52.68
2023-03-22T10:51:30.086Z,52.59
2023-03-22T10:54:01.419Z,51.59
2023-03-22T10:56:32.979Z,51.14
2023-03-22T10:59:04.224Z,51.07
2023-03-22T11:01:37.122Z,50.22
2023-03-22T11:04:16.956Z,51.11
2023-03-22T11:06:56.125Z,50.43
2023-03-22T11:09:25.384Z,50.26
2023-03-22T11:11:59.802Z,49.92
2023-03-22T11:14:30.024Z,50.42
2023-03-22T11:17:01.588Z,50.05
2023-03-22T11:19:36.008Z,50.49
2023-03-22T11:22:21.265Z,49.74
2023-03-22T11:24:53.118Z,50.73
2023-03-22T11:27:33.169Z,50.68
2023-03-22T11:30:25.420Z,50.40
2023-03-22T11:33:19.295Z,50.10
2023-03-22T11:35:54.866Z,50.14
2023-03-22T11:38:47.329Z,50.01
2023-03-22T11:41:26.647Z,49.19
2023-03-22T11:44:24.470Z,49.74
2023-03-22T11:47:00.941Z,49.36
2023-03-22T11:49:40.169Z,48.46
2023-03-22T11:52:11.512Z,48.03
2023-03-22T11:54:43.190Z,48.87
2023-03-22T11:57:19.431Z,48.35
2023-03-22T11:59:55.900Z,47.41
2023-03-22T12:02:33.059Z,46.52
2023-03-22T12:05:32.176Z,47.12
2023-03-22T12:08:16.219Z,47.24
2023-03-22T12:10:48.505Z,47.21
2023-03-22T12:13:22.099Z,46.89
2023-03-22T12:15:56.980Z,47.24
2023-03-22T12:18:47.861Z,46.22
2023-03-22T12:21:17.019Z,46.23
2023-03-22T12:23:45.598Z,44.58
2023-03-22T12:26:20.056Z,45.06
2023-03-22T12:28:56.529Z,44.63
2023-03-22T12:31:31.041Z,43.67
2023-03-22T12:34:06.354Z,44.01
2023-03-22T12:37:04.218Z,44.48
2023-03-22T12:39:38.384Z,43.40
2023-03-22T12:42:24.519Z,42.16
2023-03-22T12:45:05.034Z,41.38
2023-03-22T12:47:44.395Z,41.65
2023-03-22T12:50:19.874Z,41.74
2023-03-22T12:52:50.090Z,41.14
2023-03-22T12:55:23.582Z,40.28
2023-03-22T12:57:52.848Z,41.02
2023-03-22T13:00:30.342Z,40.19
2023-03-22T13:03:30.040Z,39.94
2023-03-22T13:06:02.960Z,40.57
2023-03-22T13:09:04.834Z,40.35
2023-03-22T13:11:33.095Z,38.37
2023-03-22T13:14:01.371Z,38.47
2023-03-22T13:16:53.201Z,37.12
2023-03-22T13:19:37.149Z,37.04
2023-03-22T13:22:26.509Z,37.48
2023-03-22T13:25:14.747Z,38.62
2023-03-22T13:27:45.727Z,39.48
2023-03-22T13:30:25.623Z,39.61
2023-03-22T13:32:57.828Z,38.82
2023-03-22T13:35:34.296Z,40.07
2023-03-22T13:38:07.978Z,39.35
2023-03-22T13:40:39.824Z,39.25
2023-03-22T13:43:32.372Z,39.10
2023-03-22T13:46:09.887Z,39.24
2023-03-22T13:48:48.264Z,39.76
2023-03-22T13:51:29.965Z,39.55
2023-03-22T13:54:04.998Z,39.53
2023-03-22T13:56:34.420Z,39.90
2023-03-22T13:59:06.356Z,39.74
2023-03-22T14:01:37.074Z,40.34
2023-03-22T14:04:12.539Z,40.06
2023-03-22T14:06:57.612Z,40.36
2023-03-22T14:09:32.962Z,40.06
2023-03-22T14:12:11.972Z,40.15
2023-03-22T14:14:47.472Z,39.88
2023-03-22T14:17:22.418Z,39.34
2023-03-22T14:19:52.151Z,39.67
